sensor_id;sensor_type;location;lat;lon;timestamp;pressure;altitude;pressure_sealevel;temperature;humidity
74474;BME280;62922;-6.168;106.796;2022-12-29T00:00:08;101157.75;;;28.29;69.05
74474;BME280;62922;-6.168;106.796;2022-12-29T00:02:35;101129.44;;;28.12;68.62
74474;BME280;62922;-6.168;106.796;2022-12-29T00:05:02;101155.78;;;28.30;69.14
74474;BME280;62922;-6.168;106.796;2022-12-29T00:07:28;101153.91;;;28.25;68.86
74474;BME280;62922;-6.168;106.796;2022-12-29T00:09:57;101172.81;;;28.33;69.13
74474;BME280;62922;-6.168;106.796;2022-12-29T00:12:23;101169.59;;;28.26;68.94
74474;BME280;62922;-6.168;106.796;2022-12-29T00:14:50;101121.03;;;27.94;68.94
74474;BME280;62922;-6.168;106.796;2022-12-29T00:17:36;101163.97;;;28.26;69.05
74474;BME280;62922;-6.168;106.796;2022-12-29T00:20:02;101103.38;;;27.93;68.94
74474;BME280;62922;-6.168;106.796;2022-12-29T00:22:48;101172.06;;;28.28;69.35
74474;BME280;62922;-6.168;106.796;2022-12-29T00:25:36;101156.09;;;28.28;69.38
74474;BME280;62922;-6.168;106.796;2022-12-29T00:28:22;101169.75;;;28.35;69.05
74474;BME280;62922;-6.168;106.796;2022-12-29T00:31:00;101173.13;;;28.32;69.39
74474;BME280;62922;-6.168;106.796;2022-12-29T00:33:46;101164.34;;;28.38;69.83
74474;BME280;62922;-6.168;106.796;2022-12-29T00:36:42;101119.41;;;28.06;68.54
74474;BME280;62922;-6.168;106.796;2022-12-29T00:39:16;101189.22;;;28.26;69.22
74474;BME280;62922;-6.168;106.796;2022-12-29T00:42:05;101167.78;;;28.17;69.36
74474;BME280;62922;-6.168;106.796;2022-12-29T00:44:51;101168.09;;;28.15;69.38
74474;BME280;62922;-6.168;106.796;2022-12-29T00:47:20;101072.78;;;27.59;68.95
74474;BME280;62922;-6.168;106.796;2022-12-29T00:49:47;101177.56;;;28.19;69.22
74474;BME280;62922;-6.168;106.796;2022-12-29T00:52:13;101166.66;;;28.18;68.81
74474;BME280;62922;-6.168;106.796;2022-12-29T00:54:40;101182.50;;;28.27;68.71
74474;BME280;62922;-6.168;106.796;2022-12-29T00:57:10;101168.47;;;28.27;69.04
74474;BME280;62922;-6.168;106.796;2022-12-29T00:59:40;101169.91;;;28.25;69.25
74474;BME280;62922;-6.168;106.796;2022-12-29T01:02:07;101180.44;;;28.33;69.09
74474;BME280;62922;-6.168;106.796;2022-12-29T01:04:34;101176.47;;;28.34;68.78
74474;BME280;62922;-6.168;106.796;2022-12-29T01:07:00;101095.41;;;27.82;68.80
74474;BME280;62922;-6.168;106.796;2022-12-29T01:09:27;101129.38;;;27.99;69.71
74474;BME280;62922;-6.168;106.796;2022-12-29T01:12:16;101125.25;;;27.91;68.74
74474;BME280;62922;-6.168;106.796;2022-12-29T01:14:42;101166.13;;;28.16;69.38
74474;BME280;62922;-6.168;106.796;2022-12-29T01:17:08;101173.38;;;28.17;69.60
74474;BME280;62922;-6.168;106.796;2022-12-29T01:19:35;101129.19;;;27.90;69.41
74474;BME280;62922;-6.168;106.796;2022-12-29T01:22:01;101165.06;;;28.12;69.52
74474;BME280;62922;-6.168;106.796;2022-12-29T01:24:27;101177.22;;;28.07;69.54
74474;BME280;62922;-6.168;106.796;2022-12-29T01:26:54;101182.66;;;28.17;69.70
74474;BME280;62922;-6.168;106.796;2022-12-29T01:29:20;101167.28;;;28.15;69.56
74474;BME280;62922;-6.168;106.796;2022-12-29T01:31:46;101165.28;;;28.15;69.42
74474;BME280;62922;-6.168;106.796;2022-12-29T01:34:13;101180.59;;;28.23;69.11
74474;BME280;62922;-6.168;106.796;2022-12-29T01:36:39;101108.38;;;27.96;69.07
74474;BME280;62922;-6.168;106.796;2022-12-29T01:39:05;101165.28;;;28.15;69.56
74474;BME280;62922;-6.168;106.796;2022-12-29T01:41:34;101185.28;;;28.27;69.66
74474;BME280;62922;-6.168;106.796;2022-12-29T01:44:00;101177.25;;;28.21;69.31
74474;BME280;62922;-6.168;106.796;2022-12-29T01:46:33;101179.97;;;28.26;69.45
74474;BME280;62922;-6.168;106.796;2022-12-29T01:49:09;101190.91;;;28.27;70.01
74474;BME280;62922;-6.168;106.796;2022-12-29T01:51:42;101183.50;;;28.18;69.66
74474;BME280;62922;-6.168;106.796;2022-12-29T01:54:17;101185.88;;;28.24;69.96
74474;BME280;62922;-6.168;106.796;2022-12-29T01:56:45;101193.72;;;28.27;69.52
74474;BME280;62922;-6.168;106.796;2022-12-29T01:59:15;101151.50;;;28.00;69.77
74474;BME280;62922;-6.168;106.796;2022-12-29T02:01:44;101160.97;;;28.04;69.74
74474;BME280;62922;-6.168;106.796;2022-12-29T02:04:13;101155.31;;;28.09;70.12
74474;BME280;62922;-6.168;106.796;2022-12-29T02:06:52;101210.28;;;28.42;71.11
74474;BME280;62922;-6.168;106.796;2022-12-29T02:09:20;101208.41;;;28.56;71.08
74474;BME280;62922;-6.168;106.796;2022-12-29T02:11:46;101181.78;;;28.35;70.92
74474;BME280;62922;-6.168;106.796;2022-12-29T02:25:46;101233.75;;;28.33;70.03
74474;BME280;62922;-6.168;106.796;2022-12-29T02:28:14;101237.09;;;28.35;69.72
74474;BME280;62922;-6.168;106.796;2022-12-29T02:38:50;101249.22;;;28.30;70.26
74474;BME280;62922;-6.168;106.796;2022-12-29T02:43:59;101174.25;;;27.99;70.52
74474;BME280;62922;-6.168;106.796;2022-12-29T02:46:35;101217.50;;;28.30;69.38
74474;BME280;62922;-6.168;106.796;2022-12-29T02:54:18;101213.09;;;28.42;69.84
74474;BME280;62922;-6.168;106.796;2022-12-29T02:57:26;101238.28;;;28.47;69.71
74474;BME280;62922;-6.168;106.796;2022-12-29T02:59:57;101223.88;;;28.54;69.29
74474;BME280;62922;-6.168;106.796;2022-12-29T03:13:36;101200.00;;;28.19;71.25
74474;BME280;62922;-6.168;106.796;2022-12-29T03:16:35;101196.16;;;28.15;71.91
74474;BME280;62922;-6.168;106.796;2022-12-29T03:19:26;101198.28;;;28.23;70.96
74474;BME280;62922;-6.168;106.796;2022-12-29T03:22:03;101128.59;;;27.74;71.19
74474;BME280;62922;-6.168;106.796;2022-12-29T03:24:57;101191.38;;;28.16;71.27
74474;BME280;62922;-6.168;106.796;2022-12-29T03:27:29;101204.00;;;28.32;71.18
74474;BME280;62922;-6.168;106.796;2022-12-29T03:30:00;101206.28;;;28.30;70.70
74474;BME280;62922;-6.168;106.796;2022-12-29T03:32:32;101176.28;;;28.12;70.47
74474;BME280;62922;-6.168;106.796;2022-12-29T03:35:03;101144.66;;;28.06;71.02
74474;BME280;62922;-6.168;106.796;2022-12-29T03:37:35;101162.16;;;28.17;71.74
74474;BME280;62922;-6.168;106.796;2022-12-29T03:40:04;101197.19;;;28.38;71.06
74474;BME280;62922;-6.168;106.796;2022-12-29T03:42:36;101187.31;;;28.40;71.06
74474;BME280;62922;-6.168;106.796;2022-12-29T03:45:06;101178.97;;;28.35;71.09
74474;BME280;62922;-6.168;106.796;2022-12-29T03:47:33;101194.06;;;28.39;70.61
74474;BME280;62922;-6.168;106.796;2022-12-29T03:50:00;101180.66;;;28.36;71.03
74474;BME280;62922;-6.168;106.796;2022-12-29T03:52:26;101150.38;;;28.33;70.79
74474;BME280;62922;-6.168;106.796;2022-12-29T03:54:52;101159.63;;;28.34;70.45
74474;BME280;62922;-6.168;106.796;2022-12-29T03:57:18;101165.91;;;28.44;70.29
74474;BME280;62922;-6.168;106.796;2022-12-29T03:59:45;101159.09;;;28.32;70.23
74474;BME280;62922;-6.168;106.796;2022-12-29T04:02:11;101155.06;;;28.38;70.20
74474;BME280;62922;-6.168;106.796;2022-12-29T04:04:37;101176.81;;;28.46;71.13
74474;BME280;62922;-6.168;106.796;2022-12-29T04:07:07;101160.59;;;28.43;71.04
74474;BME280;62922;-6.168;106.796;2022-12-29T04:09:33;101173.28;;;28.40;71.28
74474;BME280;62922;-6.168;106.796;2022-12-29T04:11:59;101135.66;;;28.41;71.69
74474;BME280;62922;-6.168;106.796;2022-12-29T04:14:25;101150.03;;;28.53;71.36
74474;BME280;62922;-6.168;106.796;2022-12-29T04:16:52;101136.47;;;28.60;71.72
74474;BME280;62922;-6.168;106.796;2022-12-29T04:19:18;101156.22;;;28.83;72.04
74474;BME280;62922;-6.168;106.796;2022-12-29T04:21:44;101115.34;;;28.77;71.16
74474;BME280;62922;-6.168;106.796;2022-12-29T04:24:10;101137.00;;;28.90;71.49
74474;BME280;62922;-6.168;106.796;2022-12-29T04:26:38;101152.53;;;29.14;71.41
74474;BME280;62922;-6.168;106.796;2022-12-29T04:29:05;101112.53;;;29.04;71.38
74474;BME280;62922;-6.168;106.796;2022-12-29T04:31:31;101115.06;;;29.19;71.04
74474;BME280;62922;-6.168;106.796;2022-12-29T04:34:00;101111.28;;;29.23;71.06
74474;BME280;62922;-6.168;106.796;2022-12-29T04:36:27;101098.34;;;29.36;70.88
74474;BME280;62922;-6.168;106.796;2022-12-29T04:38:53;101052.84;;;29.12;70.84
74474;BME280;62922;-6.168;106.796;2022-12-29T04:41:19;101100.75;;;29.42;70.50
74474;BME280;62922;-6.168;106.796;2022-12-29T04:43:46;101095.13;;;29.42;70.35
74474;BME280;62922;-6.168;106.796;2022-12-29T04:46:12;101090.84;;;29.45;70.32
74474;BME280;62922;-6.168;106.796;2022-12-29T04:48:38;101116.56;;;29.52;70.65
74474;BME280;62922;-6.168;106.796;2022-12-29T04:51:05;101071.47;;;29.43;70.70
74474;BME280;62922;-6.168;106.796;2022-12-29T04:53:31;101069.47;;;29.57;70.90
74474;BME280;62922;-6.168;106.796;2022-12-29T04:56:00;101000.66;;;29.19;70.73
74474;BME280;62922;-6.168;106.796;2022-12-29T04:58:26;101020.34;;;29.41;70.61
74474;BME280;62922;-6.168;106.796;2022-12-29T05:00:52;101058.09;;;29.62;70.67
74474;BME280;62922;-6.168;106.796;2022-12-29T05:03:19;101062.75;;;29.67;70.42
74474;BME280;62922;-6.168;106.796;2022-12-29T05:05:45;101063.28;;;29.69;70.50
74474;BME280;62922;-6.168;106.796;2022-12-29T05:08:11;101054.31;;;29.67;70.03
74474;BME280;62922;-6.168;106.796;2022-12-29T05:10:38;101050.97;;;29.65;70.21
74474;BME280;62922;-6.168;106.796;2022-12-29T05:13:04;101042.25;;;29.66;69.57
74474;BME280;62922;-6.168;106.796;2022-12-29T05:15:30;101054.63;;;29.79;69.83
74474;BME280;62922;-6.168;106.796;2022-12-29T05:17:56;101055.13;;;29.81;69.96
74474;BME280;62922;-6.168;106.796;2022-12-29T05:20:25;101001.34;;;29.60;68.70
74474;BME280;62922;-6.168;106.796;2022-12-29T05:22:51;101058.31;;;29.88;68.97
74474;BME280;62922;-6.168;106.796;2022-12-29T05:25:17;101061.91;;;29.80;69.15
74474;BME280;62922;-6.168;106.796;2022-12-29T05:27:44;101046.31;;;29.74;69.41
74474;BME280;62922;-6.168;106.796;2022-12-29T05:30:10;101012.25;;;29.62;69.33
74474;BME280;62922;-6.168;106.796;2022-12-29T05:32:37;101046.03;;;29.84;69.02
74474;BME280;62922;-6.168;106.796;2022-12-29T05:35:03;101023.53;;;29.84;67.69
74474;BME280;62922;-6.168;106.796;2022-12-29T05:37:30;101006.47;;;29.81;68.25
74474;BME280;62922;-6.168;106.796;2022-12-29T05:39:56;101005.00;;;29.83;68.42
74474;BME280;62922;-6.168;106.796;2022-12-29T05:42:22;101004.22;;;29.91;68.44
74474;BME280;62922;-6.168;106.796;2022-12-29T05:44:49;101015.31;;;29.96;68.55
74474;BME280;62922;-6.168;106.796;2022-12-29T05:47:19;100986.47;;;29.82;68.41
74474;BME280;62922;-6.168;106.796;2022-12-29T05:49:45;101020.84;;;30.01;68.23
74474;BME280;62922;-6.168;106.796;2022-12-29T05:52:15;101029.00;;;30.11;68.15
74474;BME280;62922;-6.168;106.796;2022-12-29T05:54:41;101032.97;;;30.10;67.81
74474;BME280;62922;-6.168;106.796;2022-12-29T05:57:08;101006.78;;;30.01;67.95
74474;BME280;62922;-6.168;106.796;2022-12-29T05:59:35;101026.47;;;30.01;68.22
74474;BME280;62922;-6.168;106.796;2022-12-29T06:02:01;101027.59;;;30.00;68.32
74474;BME280;62922;-6.168;106.796;2022-12-29T06:04:28;101018.84;;;30.02;67.85
74474;BME280;62922;-6.168;106.796;2022-12-29T06:06:56;101034.25;;;30.04;67.80
74474;BME280;62922;-6.168;106.796;2022-12-29T06:09:22;101018.66;;;29.98;68.07
74474;BME280;62922;-6.168;106.796;2022-12-29T06:11:49;101025.69;;;30.09;67.31
74474;BME280;62922;-6.168;106.796;2022-12-29T06:14:15;101010.91;;;30.04;67.04
74474;BME280;62922;-6.168;106.796;2022-12-29T06:16:41;101010.47;;;30.10;67.58
74474;BME280;62922;-6.168;106.796;2022-12-29T06:19:08;100999.13;;;30.02;67.27
74474;BME280;62922;-6.168;106.796;2022-12-29T06:21:36;100942.72;;;29.76;67.23
74474;BME280;62922;-6.168;106.796;2022-12-29T06:24:04;101013.97;;;30.16;67.09
74474;BME280;62922;-6.168;106.796;2022-12-29T06:26:30;100996.72;;;30.09;66.76
74474;BME280;62922;-6.168;106.796;2022-12-29T06:28:57;100998.56;;;30.13;66.63
74474;BME280;62922;-6.168;106.796;2022-12-29T06:31:23;100955.88;;;29.89;67.12
74474;BME280;62922;-6.168;106.796;2022-12-29T06:33:49;100981.81;;;30.08;66.11
74474;BME280;62922;-6.168;106.796;2022-12-29T06:36:16;101005.44;;;30.29;66.05
74474;BME280;62922;-6.168;106.796;2022-12-29T06:38:42;101007.97;;;30.31;65.83
74474;BME280;62922;-6.168;106.796;2022-12-29T06:41:11;100935.78;;;30.04;65.49
74474;BME280;62922;-6.168;106.796;2022-12-29T06:43:37;100908.19;;;29.84;64.78
74474;BME280;62922;-6.168;106.796;2022-12-29T06:46:06;100971.16;;;30.27;64.76
74474;BME280;62922;-6.168;106.796;2022-12-29T06:48:32;100991.72;;;30.36;64.57
74474;BME280;62922;-6.168;106.796;2022-12-29T06:50:58;100980.78;;;30.26;64.33
74474;BME280;62922;-6.168;106.796;2022-12-29T06:53:24;100967.53;;;30.27;64.02
74474;BME280;62922;-6.168;106.796;2022-12-29T06:55:51;100969.13;;;30.19;63.50
74474;BME280;62922;-6.168;106.796;2022-12-29T06:58:17;100986.44;;;30.35;63.41
74474;BME280;62922;-6.168;106.796;2022-12-29T07:00:43;100970.84;;;30.29;62.59
74474;BME280;62922;-6.168;106.796;2022-12-29T07:03:10;100910.09;;;30.06;62.71
74474;BME280;62922;-6.168;106.796;2022-12-29T07:05:36;100945.59;;;30.24;61.91
74474;BME280;62922;-6.168;106.796;2022-12-29T07:08:02;100933.41;;;30.28;61.93
74474;BME280;62922;-6.168;106.796;2022-12-29T07:10:29;100853.72;;;29.80;61.83
74474;BME280;62922;-6.168;106.796;2022-12-29T07:12:55;100923.63;;;30.26;62.46
74474;BME280;62922;-6.168;106.796;2022-12-29T07:15:22;100934.28;;;30.37;61.99
74474;BME280;62922;-6.168;106.796;2022-12-29T07:17:48;100904.53;;;30.14;62.33
74474;BME280;62922;-6.168;106.796;2022-12-29T07:20:15;100933.78;;;30.35;62.35
74474;BME280;62922;-6.168;106.796;2022-12-29T07:22:41;100912.66;;;30.24;61.37
74474;BME280;62922;-6.168;106.796;2022-12-29T07:25:08;100886.13;;;30.08;61.47
74474;BME280;62922;-6.168;106.796;2022-12-29T07:27:34;100919.47;;;30.23;61.14
74474;BME280;62922;-6.168;106.796;2022-12-29T07:30:00;100923.03;;;30.46;61.07
74474;BME280;62922;-6.168;106.796;2022-12-29T07:32:33;100920.03;;;30.42;61.59
74474;BME280;62922;-6.168;106.796;2022-12-29T07:34:59;100919.19;;;30.42;60.81
74474;BME280;62922;-6.168;106.796;2022-12-29T07:37:26;100921.03;;;30.46;60.47
74474;BME280;62922;-6.168;106.796;2022-12-29T07:39:53;100900.66;;;30.41;60.30
74474;BME280;62922;-6.168;106.796;2022-12-29T07:42:19;100903.81;;;30.48;61.26
74474;BME280;62922;-6.168;106.796;2022-12-29T07:44:48;100903.47;;;30.49;60.81
74474;BME280;62922;-6.168;106.796;2022-12-29T07:47:14;100850.72;;;30.16;61.04
74474;BME280;62922;-6.168;106.796;2022-12-29T07:49:41;100858.69;;;30.22;60.59
74474;BME280;62922;-6.168;106.796;2022-12-29T07:52:07;100880.59;;;30.34;60.41
74474;BME280;62922;-6.168;106.796;2022-12-29T07:54:33;100898.84;;;30.45;59.99
74474;BME280;62922;-6.168;106.796;2022-12-29T07:57:00;100908.81;;;30.51;59.99
74474;BME280;62922;-6.168;106.796;2022-12-29T07:59:26;100895.72;;;30.55;60.23
74474;BME280;62922;-6.168;106.796;2022-12-29T08:01:53;100892.09;;;30.54;60.49
74474;BME280;62922;-6.168;106.796;2022-12-29T08:04:22;100890.91;;;30.55;60.29
74474;BME280;62922;-6.168;106.796;2022-12-29T08:06:48;100889.56;;;30.44;59.63
74474;BME280;62922;-6.168;106.796;2022-12-29T08:09:15;100860.56;;;30.44;59.63
74474;BME280;62922;-6.168;106.796;2022-12-29T08:11:42;100861.25;;;30.41;59.21
74474;BME280;62922;-6.168;106.796;2022-12-29T08:14:09;100858.41;;;30.41;58.89
74474;BME280;62922;-6.168;106.796;2022-12-29T08:16:35;100871.53;;;30.45;59.01
74474;BME280;62922;-6.168;106.796;2022-12-29T08:19:02;100819.63;;;30.29;58.69
74474;BME280;62922;-6.168;106.796;2022-12-29T08:21:30;100875.03;;;30.59;58.68
74474;BME280;62922;-6.168;106.796;2022-12-29T08:23:57;100851.66;;;30.50;59.47
74474;BME280;62922;-6.168;106.796;2022-12-29T08:26:24;100803.59;;;30.30;59.45
74474;BME280;62922;-6.168;106.796;2022-12-29T08:28:54;100862.25;;;30.62;59.25
74474;BME280;62922;-6.168;106.796;2022-12-29T08:31:21;100868.72;;;30.62;59.14
74474;BME280;62922;-6.168;106.796;2022-12-29T08:33:48;100856.44;;;30.58;58.82
74474;BME280;62922;-6.168;106.796;2022-12-29T08:36:14;100865.06;;;30.62;59.02
74474;BME280;62922;-6.168;106.796;2022-12-29T08:38:41;100852.16;;;30.61;58.47
74474;BME280;62922;-6.168;106.796;2022-12-29T08:41:07;100812.69;;;30.35;58.88
74474;BME280;62922;-6.168;106.796;2022-12-29T08:43:34;100847.03;;;30.54;59.29
74474;BME280;62922;-6.168;106.796;2022-12-29T08:46:00;100872.72;;;30.70;59.19
74474;BME280;62922;-6.168;106.796;2022-12-29T08:48:27;100820.31;;;30.35;59.69
74474;BME280;62922;-6.168;106.796;2022-12-29T08:50:53;100866.56;;;30.59;60.17
74474;BME280;62922;-6.168;106.796;2022-12-29T08:53:19;100836.56;;;30.46;59.68
74474;BME280;62922;-6.168;106.796;2022-12-29T08:55:55;100865.06;;;30.62;59.29
74474;BME280;62922;-6.168;106.796;2022-12-29T08:58:25;100852.16;;;30.52;59.74
74474;BME280;62922;-6.168;106.796;2022-12-29T09:00:53;100838.56;;;30.54;59.35
74474;BME280;62922;-6.168;106.796;2022-12-29T09:03:20;100850.00;;;30.58;59.42
74474;BME280;62922;-6.168;106.796;2022-12-29T09:05:50;100836.06;;;30.53;59.72
74474;BME280;62922;-6.168;106.796;2022-12-29T09:08:20;100855.63;;;30.66;59.17
74474;BME280;62922;-6.168;106.796;2022-12-29T09:10:47;100807.06;;;30.35;60.20
74474;BME280;62922;-6.168;106.796;2022-12-29T09:13:14;100823.47;;;30.33;60.43
74474;BME280;62922;-6.168;106.796;2022-12-29T09:15:41;100861.63;;;30.56;60.39
74474;BME280;62922;-6.168;106.796;2022-12-29T09:18:09;100853.47;;;30.55;60.60
74474;BME280;62922;-6.168;106.796;2022-12-29T09:20:35;100843.50;;;30.40;59.78
74474;BME280;62922;-6.168;106.796;2022-12-29T09:23:03;100807.38;;;30.25;59.31
74474;BME280;62922;-6.168;106.796;2022-12-29T09:25:30;100868.72;;;30.54;59.47
74474;BME280;62922;-6.168;106.796;2022-12-29T09:27:56;100877.84;;;30.59;60.96
74474;BME280;62922;-6.168;106.796;2022-12-29T09:30:23;100882.97;;;30.57;59.84
74474;BME280;62922;-6.168;106.796;2022-12-29T09:32:49;100888.44;;;30.54;60.31
74474;BME280;62922;-6.168;106.796;2022-12-29T09:35:16;100874.19;;;30.50;61.12
74474;BME280;62922;-6.168;106.796;2022-12-29T09:37:43;100892.59;;;30.56;60.81
74474;BME280;62922;-6.168;106.796;2022-12-29T09:40:30;100888.09;;;30.55;60.50
74474;BME280;62922;-6.168;106.796;2022-12-29T09:43:17;100816.94;;;30.16;60.93
74474;BME280;62922;-6.168;106.796;2022-12-29T09:48:35;100894.91;;;30.54;61.59
74474;BME280;62922;-6.168;106.796;2022-12-29T09:51:10;100859.38;;;30.28;60.93
74474;BME280;62922;-6.168;106.796;2022-12-29T09:53:45;100860.22;;;30.28;60.78
74474;BME280;62922;-6.168;106.796;2022-12-29T09:56:17;100896.72;;;30.50;60.90
74474;BME280;62922;-6.168;106.796;2022-12-29T09:58:52;100902.34;;;30.50;60.93
74474;BME280;62922;-6.168;106.796;2022-12-29T10:01:27;100872.50;;;30.32;60.75
74474;BME280;62922;-6.168;106.796;2022-12-29T10:03:57;100923.06;;;30.54;60.95
74474;BME280;62922;-6.168;106.796;2022-12-29T10:24:58;100940.25;;;30.44;62.88
74474;BME280;62922;-6.168;106.796;2022-12-29T10:27:31;100939.75;;;30.42;62.88
74474;BME280;62922;-6.168;106.796;2022-12-29T10:30:01;100928.66;;;30.37;62.13
74474;BME280;62922;-6.168;106.796;2022-12-29T10:32:58;100957.31;;;30.48;62.35
74474;BME280;62922;-6.168;106.796;2022-12-29T10:35:34;100951.00;;;30.42;61.96
74474;BME280;62922;-6.168;106.796;2022-12-29T10:41:07;100985.47;;;30.48;62.55
74474;BME280;62922;-6.168;106.796;2022-12-29T10:43:56;100983.50;;;30.48;62.59
74474;BME280;62922;-6.168;106.796;2022-12-29T10:46:27;100955.44;;;30.35;62.96
74474;BME280;62922;-6.168;106.796;2022-12-29T10:48:55;100984.47;;;30.44;62.75
74474;BME280;62922;-6.168;106.796;2022-12-29T10:51:25;100939.00;;;30.20;62.77
74474;BME280;62922;-6.168;106.796;2022-12-29T10:54:16;100947.22;;;30.16;62.58
74474;BME280;62922;-6.168;106.796;2022-12-29T10:56:44;100986.94;;;30.37;63.16
74474;BME280;62922;-6.168;106.796;2022-12-29T10:59:24;101008.16;;;30.43;63.18
74474;BME280;62922;-6.168;106.796;2022-12-29T11:04:33;101009.31;;;30.42;63.28
74474;BME280;62922;-6.168;106.796;2022-12-29T11:07:03;100868.47;;;29.55;62.87
74474;BME280;62922;-6.168;106.796;2022-12-29T11:09:34;100989.91;;;30.32;62.92
74474;BME280;62922;-6.168;106.796;2022-12-29T11:12:24;101012.63;;;30.44;63.35
74474;BME280;62922;-6.168;106.796;2022-12-29T11:17:57;101017.44;;;30.43;63.22
74474;BME280;62922;-6.168;106.796;2022-12-29T11:20:31;101030.19;;;30.41;63.22
74474;BME280;62922;-6.168;106.796;2022-12-29T11:23:01;101018.41;;;30.39;63.23
74474;BME280;62922;-6.168;106.796;2022-12-29T11:25:28;101026.03;;;30.38;63.39
74474;BME280;62922;-6.168;106.796;2022-12-29T11:28:01;101012.41;;;30.32;62.96
74474;BME280;62922;-6.168;106.796;2022-12-29T11:30:30;101030.19;;;30.41;63.56
74474;BME280;62922;-6.168;106.796;2022-12-29T11:32:57;100995.78;;;30.22;63.58
74474;BME280;62922;-6.168;106.796;2022-12-29T11:35:44;101028.53;;;30.40;63.56
74474;BME280;62922;-6.168;106.796;2022-12-29T11:38:40;101024.69;;;30.36;63.01
74474;BME280;62922;-6.168;106.796;2022-12-29T11:41:11;100987.78;;;30.07;63.84
74474;BME280;62922;-6.168;106.796;2022-12-29T11:43:42;101029.16;;;30.37;63.46
74474;BME280;62922;-6.168;106.796;2022-12-29T11:46:26;101006.56;;;30.20;63.19
74474;BME280;62922;-6.168;106.796;2022-12-29T11:48:56;101010.16;;;30.20;63.13
74474;BME280;62922;-6.168;106.796;2022-12-29T11:53:59;101044.22;;;30.32;62.29
74474;BME280;62922;-6.168;106.796;2022-12-29T11:59:35;101070.56;;;30.36;62.18
74474;BME280;62922;-6.168;106.796;2022-12-29T12:04:51;101034.44;;;30.08;62.14
74474;BME280;62922;-6.168;106.796;2022-12-29T12:07:32;101072.28;;;30.24;62.14
74474;BME280;62922;-6.168;106.796;2022-12-29T12:10:01;101086.91;;;30.26;62.21
74474;BME280;62922;-6.168;106.796;2022-12-29T12:12:56;101063.16;;;30.18;62.28
74474;BME280;62922;-6.168;106.796;2022-12-29T12:15:43;101069.38;;;30.29;62.43
74474;BME280;62922;-6.168;106.796;2022-12-29T12:26:42;101098.34;;;30.29;63.24
74474;BME280;62922;-6.168;106.796;2022-12-29T12:35:03;101111.09;;;30.27;63.60
74474;BME280;62922;-6.168;106.796;2022-12-29T12:40:26;101139.13;;;30.32;63.50
74474;BME280;62922;-6.168;106.796;2022-12-29T12:43:03;101137.13;;;30.32;63.80
74474;BME280;62922;-6.168;106.796;2022-12-29T12:56:15;101136.50;;;30.22;63.96
74474;BME280;62922;-6.168;106.796;2022-12-29T12:58:56;101128.34;;;30.12;64.14
74474;BME280;62922;-6.168;106.796;2022-12-29T13:06:50;101149.28;;;30.19;63.90
74474;BME280;62922;-6.168;106.796;2022-12-29T13:17:02;101157.19;;;30.17;63.86
74474;BME280;62922;-6.168;106.796;2022-12-29T13:19:37;101163.97;;;30.16;64.31
74474;BME280;62922;-6.168;106.796;2022-12-29T13:27:32;101161.81;;;30.13;64.00
74474;BME280;62922;-6.168;106.796;2022-12-29T13:30:04;101173.06;;;30.13;64.86
74474;BME280;62922;-6.168;106.796;2022-12-29T13:35:41;101170.63;;;30.20;65.14
74474;BME280;62922;-6.168;106.796;2022-12-29T13:41:09;101176.16;;;30.25;64.69
74474;BME280;62922;-6.168;106.796;2022-12-29T13:43:40;101118.53;;;29.87;64.57
74474;BME280;62922;-6.168;106.796;2022-12-29T13:46:15;101182.41;;;30.22;64.56
74474;BME280;62922;-6.168;106.796;2022-12-29T13:48:52;101171.41;;;30.12;64.95
74474;BME280;62922;-6.168;106.796;2022-12-29T13:51:21;101123.97;;;29.84;65.21
74474;BME280;62922;-6.168;106.796;2022-12-29T13:54:13;101190.00;;;30.00;65.53
74474;BME280;62922;-6.168;106.796;2022-12-29T13:59:38;101209.22;;;29.70;67.07
74474;BME280;62922;-6.168;106.796;2022-12-29T14:02:37;101173.09;;;29.50;67.55
74474;BME280;62922;-6.168;106.796;2022-12-29T14:05:02;101201.31;;;29.59;67.64
74474;BME280;62922;-6.168;106.796;2022-12-29T14:07:29;101170.13;;;29.33;67.87
74474;BME280;62922;-6.168;106.796;2022-12-29T14:10:02;101204.22;;;29.54;67.73
74474;BME280;62922;-6.168;106.796;2022-12-29T14:17:35;101191.56;;;29.43;67.64
74474;BME280;62922;-6.168;106.796;2022-12-29T14:20:03;101161.56;;;29.25;67.48
74474;BME280;62922;-6.168;106.796;2022-12-29T14:22:30;101207.88;;;29.54;67.72
74474;BME280;62922;-6.168;106.796;2022-12-29T14:24:56;101129.13;;;29.19;67.40
74474;BME280;62922;-6.168;106.796;2022-12-29T14:27:43;101194.03;;;29.58;67.79
74474;BME280;62922;-6.168;106.796;2022-12-29T14:33:16;101199.66;;;29.58;67.64
74474;BME280;62922;-6.168;106.796;2022-12-29T14:35:44;101200.16;;;29.60;67.63
74474;BME280;62922;-6.168;106.796;2022-12-29T14:38:16;101205.47;;;29.61;67.76
74474;BME280;62922;-6.168;106.796;2022-12-29T14:40:44;101190.28;;;29.62;67.04
74474;BME280;62922;-6.168;106.796;2022-12-29T14:43:23;101107.88;;;29.13;67.85
74474;BME280;62922;-6.168;106.796;2022-12-29T14:45:55;101189.44;;;29.62;67.76
74474;BME280;62922;-6.168;106.796;2022-12-29T14:50:50;101171.56;;;29.44;67.96
74474;BME280;62922;-6.168;106.796;2022-12-29T14:56:00;101201.72;;;29.66;67.96
74474;BME280;62922;-6.168;106.796;2022-12-29T14:58:29;101198.59;;;29.81;67.83
74474;BME280;62922;-6.168;106.796;2022-12-29T15:00:58;64697.81;;;-141.63;100.00
74474;BME280;62922;-6.168;106.796;2022-12-29T15:06:03;64697.81;;;-141.63;100.00
74474;BME280;62922;-6.168;106.796;2022-12-29T15:08:33;64697.81;;;-141.63;100.00
74474;BME280;62922;-6.168;106.796;2022-12-29T15:11:06;64697.81;;;-141.63;100.00
74474;BME280;62922;-6.168;106.796;2022-12-29T15:13:40;64697.81;;;-141.63;100.00